createdAt,value
2017-12-17T00:02:36.190Z,0
2017-12-17T00:19:25.129Z,0
2017-12-17T00:20:16.075Z,0
2017-12-17T00:30:59.327Z,0
2017-12-17T00:31:39.747Z,0
2017-12-17T00:32:22.358Z,0
2017-12-17T00:33:03.211Z,0
2017-12-17T00:33:45.341Z,0
2017-12-17T00:34:28.212Z,0
2017-12-17T00:35:09.045Z,0
2017-12-17T00:35:53.850Z,0
2017-12-17T00:36:33.421Z,0
2017-12-17T00:37:15.409Z,0
2017-12-17T00:37:57.380Z,0
2017-12-17T00:38:39.817Z,0
2017-12-17T00:39:19.807Z,0
2017-12-17T00:40:01.118Z,0
2017-12-17T00:40:41.307Z,0
2017-12-17T00:41:23.184Z,0
2017-12-17T00:42:07.634Z,0
2017-12-17T00:42:48.802Z,0
2017-12-17T00:43:31.660Z,0
2017-12-17T00:44:11.947Z,0
2017-12-17T00:44:54.070Z,0
2017-12-17T00:45:33.767Z,0
2017-12-17T00:46:14.624Z,0
2017-12-17T00:46:55.287Z,0
2017-12-17T00:47:35.706Z,0
2017-12-17T00:48:16.791Z,0
2017-12-17T00:48:57.592Z,0
2017-12-17T00:49:38.160Z,0
2017-12-17T00:50:19.474Z,0
2017-12-17T00:51:00.481Z,0
2017-12-17T01:25:25.932Z,0
2017-12-17T01:52:38.010Z,0
2017-12-17T02:02:04.332Z,0
2017-12-17T02:02:44.601Z,0
2017-12-17T02:03:24.931Z,0
2017-12-17T02:04:06.846Z,0
2017-12-17T02:13:14.777Z,0
2017-12-17T02:23:23.233Z,0
2017-12-17T02:27:50.899Z,0
2017-12-17T02:31:29.611Z,0
2017-12-17T02:41:09.423Z,0
2017-12-17T02:41:51.953Z,0
2017-12-17T02:42:32.910Z,0
2017-12-17T02:43:13.305Z,0
2017-12-17T02:43:55.288Z,0
2017-12-17T02:44:35.922Z,0
2017-12-17T02:52:45.371Z,0
2017-12-17T02:53:28.461Z,0
2017-12-17T02:54:08.435Z,0
2017-12-17T02:54:48.448Z,0
2017-12-17T02:55:29.155Z,0
2017-12-17T02:56:09.861Z,0
2017-12-17T02:56:50.329Z,0
2017-12-17T02:57:31.676Z,0
2017-12-17T02:58:13.186Z,0
2017-12-17T02:58:53.617Z,0
2017-12-17T02:59:33.942Z,0
2017-12-17T03:00:15.624Z,0
2017-12-17T03:00:56.401Z,0
2017-12-17T03:01:37.281Z,0
2017-12-17T03:02:18.456Z,0
2017-12-17T03:02:58.645Z,0
2017-12-17T03:03:44.044Z,0
2017-12-17T03:04:25.261Z,0
2017-12-17T03:05:07.189Z,0
2017-12-17T03:05:49.105Z,0
2017-12-17T03:06:30.068Z,0
2017-12-17T03:07:15.913Z,0
2017-12-17T03:07:56.289Z,0
2017-12-17T03:08:36.605Z,0
2017-12-17T03:09:17.538Z,0
2017-12-17T03:09:58.909Z,0
2017-12-17T03:10:39.604Z,0
2017-12-17T03:11:20.505Z,0
2017-12-17T03:12:00.578Z,0
2017-12-17T03:12:42.156Z,0
2017-12-17T03:13:24.136Z,0
2017-12-17T03:14:04.391Z,0
2017-12-17T03:14:50.333Z,0
2017-12-17T03:15:29.940Z,0
2017-12-17T03:16:11.346Z,0
2017-12-17T03:16:52.014Z,0
2017-12-17T03:17:32.932Z,0
2017-12-17T03:18:13.336Z,0
2017-12-17T03:18:53.801Z,0
2017-12-17T03:19:36.073Z,0
2017-12-17T03:20:16.550Z,0
2017-12-17T03:20:58.654Z,0
2017-12-17T03:21:39.824Z,0
2017-12-17T03:22:20.595Z,0
2017-12-17T03:23:00.404Z,0
2017-12-17T03:23:41.640Z,0
2017-12-17T03:24:22.477Z,0
2017-12-17T03:25:02.896Z,0
2017-12-17T03:25:44.872Z,0
2017-12-17T03:26:25.248Z,0
2017-12-17T03:27:07.085Z,0
2017-12-17T03:27:48.228Z,0
2017-12-17T03:28:28.851Z,0
2017-12-17T03:29:09.335Z,0
2017-12-17T03:29:50.831Z,0
2017-12-17T03:30:32.719Z,0
2017-12-17T03:31:13.609Z,0
2017-12-17T03:31:54.580Z,0
2017-12-17T03:32:35.540Z,0
2017-12-17T03:33:16.558Z,0
2017-12-17T03:33:57.258Z,0
2017-12-17T03:34:39.114Z,0
2017-12-17T03:35:19.549Z,0
2017-12-17T03:36:01.358Z,0
2017-12-17T03:36:42.226Z,0
2017-12-17T03:37:25.528Z,0
2017-12-17T03:38:03.846Z,0
2017-12-17T03:38:43.987Z,0
2017-12-17T03:39:24.824Z,0
2017-12-17T03:40:06.546Z,0
2017-12-17T03:40:47.601Z,0
2017-12-17T03:41:31.012Z,0
2017-12-17T03:42:10.884Z,0
2017-12-17T03:42:51.367Z,0
2017-12-17T03:43:34.171Z,0
2017-12-17T03:44:14.607Z,0
2017-12-17T03:44:55.374Z,0
2017-12-17T03:45:36.573Z,0
2017-12-17T03:46:17.339Z,0
2017-12-17T03:46:58.799Z,0
2017-12-17T04:44:03.615Z,0
2017-12-17T04:48:54.111Z,0
2017-12-17T04:51:30.853Z,0
2017-12-17T04:52:16.365Z,0
2017-12-17T04:52:57.191Z,0
2017-12-17T04:53:38.062Z,0
2017-12-17T04:54:18.506Z,0
2017-12-17T04:55:00.074Z,0
2017-12-17T04:55:40.261Z,0
2017-12-17T04:56:20.697Z,0
2017-12-17T04:57:01.083Z,0
2017-12-17T04:57:41.506Z,0
2017-12-17T04:58:21.971Z,0
2017-12-17T04:59:05.288Z,0
2017-12-17T04:59:46.896Z,0
2017-12-17T05:00:27.334Z,0
2017-12-17T05:01:07.870Z,0
2017-12-17T05:01:48.257Z,0
2017-12-17T05:02:28.666Z,0
2017-12-17T05:03:09.074Z,0
2017-12-17T05:03:49.742Z,0
2017-12-17T05:04:30.156Z,0
2017-12-17T05:05:10.542Z,0
2017-12-17T05:05:50.911Z,0
2017-12-17T05:06:31.360Z,0
2017-12-17T05:07:12.264Z,0
2017-12-17T05:07:52.761Z,0
2017-12-17T05:08:33.737Z,0
2017-12-17T05:09:14.240Z,0
2017-12-17T05:09:54.599Z,0
2017-12-17T05:10:34.874Z,0
2017-12-17T05:11:15.907Z,0
2017-12-17T05:11:55.812Z,0
2017-12-17T05:12:36.438Z,0
2017-12-17T05:13:17.158Z,0
2017-12-17T05:13:57.668Z,0
2017-12-17T05:14:37.909Z,0
2017-12-17T05:15:18.649Z,0
2017-12-17T05:15:59.260Z,0
2017-12-17T05:16:40.578Z,0
2017-12-17T05:17:20.927Z,0
2017-12-17T05:18:01.741Z,0
2017-12-17T05:18:42.179Z,0
2017-12-17T05:19:23.506Z,0
2017-12-17T05:20:03.768Z,0
2017-12-17T05:20:44.849Z,0
2017-12-17T05:21:27.846Z,0
2017-12-17T05:22:08.920Z,0
2017-12-17T05:22:50.394Z,0
2017-12-17T05:23:31.122Z,0
2017-12-17T05:24:11.756Z,0
2017-12-17T05:24:52.224Z,0
2017-12-17T05:25:33.644Z,0
2017-12-17T05:26:13.386Z,0
2017-12-17T05:26:54.755Z,0
2017-12-17T05:27:35.464Z,0
2017-12-17T05:28:16.410Z,0
2017-12-17T05:28:56.675Z,0
2017-12-17T05:29:37.175Z,0
2017-12-17T05:30:18.688Z,0
2017-12-17T05:30:59.183Z,0
2017-12-17T05:31:41.234Z,0
2017-12-17T05:32:20.658Z,0
2017-12-17T05:33:01.470Z,0
2017-12-17T05:33:42.694Z,0
2017-12-17T05:34:27.568Z,0
2017-12-17T05:35:12.590Z,0
2017-12-17T05:41:57.074Z,0
2017-12-17T05:49:31.728Z,0
2017-12-17T05:52:18.264Z,0
2017-12-17T05:56:06.894Z,0
2017-12-17T05:59:51.496Z,0
2017-12-17T06:01:25.507Z,0
2017-12-17T06:02:05.883Z,0
2017-12-17T06:02:46.351Z,0
2017-12-17T06:03:26.696Z,0
2017-12-17T06:04:07.436Z,0
2017-12-17T06:04:49.029Z,0
2017-12-17T06:05:29.507Z,0
2017-12-17T06:06:13.214Z,0
2017-12-17T06:06:54.962Z,0
2017-12-17T06:07:35.641Z,0
2017-12-17T06:08:15.823Z,0
2017-12-17T06:08:56.977Z,0
2017-12-17T06:09:38.186Z,0
2017-12-17T06:10:25.233Z,0
2017-12-17T06:11:06.700Z,0
2017-12-17T06:11:47.598Z,0
2017-12-17T06:12:28.113Z,0
2017-12-17T06:13:08.571Z,0
2017-12-17T06:13:48.972Z,0
2017-12-17T06:14:29.759Z,0
2017-12-17T06:31:27.177Z,0
2017-12-17T06:32:03.452Z,0
2017-12-17T06:32:48.858Z,0
2017-12-17T06:33:29.457Z,0
2017-12-17T06:34:10.536Z,0
2017-12-17T06:34:51.763Z,0
2017-12-17T06:35:32.211Z,0
2017-12-17T06:36:12.913Z,0
2017-12-17T06:36:53.822Z,0
2017-12-17T06:37:36.432Z,0
2017-12-17T06:42:26.734Z,0
2017-12-17T06:45:06.097Z,0
2017-12-17T06:48:38.668Z,0
2017-12-17T06:55:11.229Z,0
2017-12-17T06:55:55.059Z,0
2017-12-17T06:56:37.201Z,0
2017-12-17T06:57:18.896Z,0
2017-12-17T06:57:58.940Z,0
2017-12-17T06:58:39.363Z,0
2017-12-17T06:59:19.740Z,0
2017-12-17T07:00:00.748Z,0
2017-12-17T07:00:41.524Z,0
2017-12-17T07:01:21.533Z,0
2017-12-17T07:02:04.960Z,0
2017-12-17T07:02:45.054Z,0
2017-12-17T07:03:25.258Z,0
2017-12-17T07:04:08.561Z,0
2017-12-17T07:04:47.671Z,0
2017-12-17T07:05:27.812Z,0
2017-12-17T07:06:08.293Z,0
2017-12-17T07:06:48.965Z,0
2017-12-17T07:07:29.305Z,0
2017-12-17T07:08:09.714Z,0
2017-12-17T07:08:50.795Z,0
2017-12-17T07:09:31.223Z,0
2017-12-17T07:10:11.864Z,0
2017-12-17T07:10:52.165Z,0
2017-12-17T07:11:34.735Z,0
2017-12-17T07:12:15.835Z,0
2017-12-17T07:12:56.102Z,0
2017-12-17T07:13:36.587Z,0
2017-12-17T07:14:16.911Z,0
2017-12-17T07:14:57.288Z,0
2017-12-17T07:15:37.688Z,0
2017-12-17T07:16:18.142Z,0
2017-12-17T07:16:58.479Z,0
2017-12-17T07:17:38.883Z,0
2017-12-17T07:18:19.292Z,0
2017-12-17T07:18:59.675Z,0
2017-12-17T07:19:40.147Z,0
2017-12-17T07:20:20.475Z,0
2017-12-17T07:21:00.851Z,0
2017-12-17T07:21:41.333Z,0
2017-12-17T07:22:21.620Z,0
2017-12-17T07:23:02.070Z,0
2017-12-17T07:23:42.479Z,0
2017-12-17T07:24:25.596Z,0
2017-12-17T07:25:05.799Z,0
2017-12-17T07:25:46.757Z,0
2017-12-17T07:26:29.604Z,0
2017-12-17T07:27:15.532Z,0
2017-12-17T07:27:53.770Z,0
2017-12-17T07:28:36.203Z,0
2017-12-17T07:29:15.999Z,0
2017-12-17T07:29:56.798Z,0
2017-12-17T07:30:36.772Z,0
2017-12-17T07:31:17.139Z,0
2017-12-17T07:31:57.760Z,0
2017-12-17T07:32:37.940Z,0
2017-12-17T07:33:18.333Z,0
2017-12-17T07:37:19.761Z,0
2017-12-17T07:38:09.666Z,0
2017-12-17T07:41:01.948Z,0
2017-12-17T07:41:53.925Z,0
2017-12-17T07:42:44.573Z,0
2017-12-17T07:43:34.447Z,0
2017-12-17T07:46:49.233Z,0
2017-12-17T07:47:42.159Z,0
2017-12-17T07:51:54.882Z,0
2017-12-17T07:58:06.179Z,0
2017-12-17T07:59:45.189Z,0
2017-12-17T08:06:17.475Z,0
2017-12-17T08:12:43.184Z,0
2017-12-17T08:13:26.351Z,0
2017-12-17T08:14:06.506Z,0
2017-12-17T08:14:48.287Z,0
2017-12-17T08:15:28.649Z,0
2017-12-17T08:16:12.364Z,0
2017-12-17T08:16:51.834Z,0
2017-12-17T08:17:33.383Z,0
2017-12-17T08:18:13.776Z,0
2017-12-17T08:18:54.784Z,0
2017-12-17T08:19:35.237Z,0
2017-12-17T08:20:15.779Z,0
2017-12-17T08:20:58.866Z,0
2017-12-17T08:21:39.165Z,0
2017-12-17T08:22:20.079Z,0
2017-12-17T08:23:02.578Z,0
2017-12-17T08:23:45.208Z,0
2017-12-17T08:24:27.432Z,0
2017-12-17T08:25:09.609Z,0
2017-12-17T08:25:48.973Z,0
2017-12-17T08:26:30.399Z,0
2017-12-17T08:27:13.357Z,0
2017-12-17T08:27:55.481Z,0
2017-12-17T08:28:35.976Z,0
2017-12-17T08:29:16.326Z,0
2017-12-17T08:29:57.216Z,0
2017-12-17T08:30:38.592Z,0
2017-12-17T08:31:19.663Z,0
2017-12-17T08:32:09.274Z,0
2017-12-17T08:32:49.241Z,0
2017-12-17T08:33:31.541Z,0
2017-12-17T08:34:12.127Z,0
2017-12-17T08:34:53.731Z,5
2017-12-17T08:35:34.500Z,5
2017-12-17T08:36:15.052Z,5
2017-12-17T08:36:55.664Z,5
2017-12-17T08:37:36.728Z,5
2017-12-17T08:38:18.501Z,5
2017-12-17T08:39:01.722Z,5
2017-12-17T08:39:41.925Z,5
2017-12-17T08:40:22.414Z,5
2017-12-17T08:41:04.637Z,5
2017-12-17T08:41:45.011Z,5
2017-12-17T08:42:25.551Z,5
2017-12-17T08:43:06.306Z,5
2017-12-17T08:43:47.049Z,5
2017-12-17T08:44:30.026Z,5
2017-12-17T08:45:10.232Z,5
2017-12-17T08:45:50.753Z,5
2017-12-17T08:46:33.494Z,5
2017-12-17T08:47:13.967Z,5
2017-12-17T08:47:55.165Z,5
2017-12-17T08:48:35.444Z,5
2017-12-17T08:49:16.174Z,5
2017-12-17T08:49:56.590Z,5
2017-12-17T08:50:37.610Z,10
2017-12-17T08:51:18.031Z,10
2017-12-17T08:51:58.466Z,10
2017-12-17T08:52:39.751Z,10
2017-12-17T08:53:20.950Z,10
2017-12-17T08:54:06.161Z,10
2017-12-17T08:54:47.005Z,10
2017-12-17T08:55:28.130Z,10
2017-12-17T09:05:16.857Z,10
2017-12-17T09:05:56.497Z,10
2017-12-17T09:06:37.592Z,10
2017-12-17T09:07:17.983Z,10
2017-12-17T09:08:00.294Z,10
2017-12-17T09:08:40.679Z,10
2017-12-17T09:09:26.231Z,10
2017-12-17T09:10:06.498Z,10
2017-12-17T09:10:46.879Z,15
2017-12-17T09:11:27.298Z,15
2017-12-17T09:12:07.827Z,15
2017-12-17T09:12:49.287Z,15
2017-12-17T09:13:31.320Z,15
2017-12-17T09:14:10.937Z,15
2017-12-17T09:14:51.348Z,15
2017-12-17T09:15:33.863Z,15
2017-12-17T09:16:14.588Z,15
2017-12-17T09:16:56.981Z,15
2017-12-17T09:17:37.419Z,15
2017-12-17T09:18:17.734Z,15
2017-12-17T09:18:58.142Z,15
2017-12-17T09:19:38.548Z,15
2017-12-17T09:20:20.342Z,15
2017-12-17T09:21:00.590Z,15
2017-12-17T09:21:41.641Z,15
2017-12-17T09:22:23.682Z,15
2017-12-17T09:23:07.436Z,20
2017-12-17T09:23:49.173Z,20
2017-12-17T09:24:30.012Z,15
2017-12-17T09:25:12.689Z,20
2017-12-17T09:25:53.088Z,20
2017-12-17T09:26:38.042Z,20
2017-12-17T09:27:18.362Z,20
2017-12-17T09:27:59.881Z,15
2017-12-17T09:28:40.113Z,20
2017-12-17T09:29:20.576Z,20
2017-12-17T09:30:07.275Z,20
2017-12-17T09:30:45.715Z,15
2017-12-17T09:31:27.451Z,15
2017-12-17T09:32:07.971Z,15
2017-12-17T09:32:48.705Z,15
2017-12-17T09:33:29.544Z,15
2017-12-17T09:34:09.776Z,15
2017-12-17T09:34:50.173Z,15
2017-12-17T09:35:32.163Z,15
2017-12-17T09:36:12.778Z,15
2017-12-17T09:36:54.812Z,15
2017-12-17T09:37:34.509Z,20
2017-12-17T09:38:15.038Z,20
2017-12-17T09:38:57.420Z,20
2017-12-17T09:39:38.184Z,20
2017-12-17T09:40:19.222Z,20
2017-12-17T09:41:00.240Z,20
2017-12-17T09:41:40.784Z,20
2017-12-17T09:42:21.212Z,25
2017-12-17T09:43:03.017Z,30
2017-12-17T09:43:43.924Z,30
2017-12-17T09:44:24.329Z,25
2017-12-17T09:45:04.708Z,20
2017-12-17T09:45:45.087Z,20
2017-12-17T09:46:25.457Z,20
2017-12-17T09:47:06.719Z,20
2017-12-17T09:47:47.016Z,25
2017-12-17T09:48:27.400Z,25
2017-12-17T09:49:07.966Z,25
2017-12-17T09:49:48.318Z,25
2017-12-17T09:50:28.705Z,20
2017-12-17T09:51:09.899Z,20
2017-12-17T09:51:50.122Z,20
2017-12-17T09:52:30.766Z,20
2017-12-17T09:53:11.128Z,20
2017-12-17T09:53:52.276Z,25
2017-12-17T09:54:33.709Z,20
2017-12-17T09:55:14.722Z,25
2017-12-17T09:55:54.937Z,25
2017-12-17T09:56:35.167Z,25
2017-12-17T09:57:15.619Z,30
2017-12-17T09:57:57.629Z,30
2017-12-17T09:58:38.433Z,30
2017-12-17T09:59:18.822Z,35
2017-12-17T09:59:59.213Z,35
2017-12-17T10:00:39.746Z,35
2017-12-17T10:01:20.436Z,35
2017-12-17T10:02:00.859Z,30
2017-12-17T10:02:41.990Z,30
2017-12-17T10:03:22.109Z,30
2017-12-17T10:04:02.518Z,30
2017-12-17T10:49:45.885Z,25
2017-12-17T10:50:28.088Z,25
2017-12-17T10:51:08.475Z,25
2017-12-17T10:51:49.022Z,25
2017-12-17T10:52:31.129Z,25
2017-12-17T10:53:14.694Z,25
2017-12-17T10:56:37.136Z,20
2017-12-17T10:57:21.301Z,15
2017-12-17T10:58:01.655Z,15
2017-12-17T10:58:45.081Z,15
2017-12-17T10:59:25.432Z,15
2017-12-17T11:00:05.896Z,15
2017-12-17T11:00:46.233Z,15
2017-12-17T11:01:29.136Z,15
2017-12-17T11:02:08.452Z,15
2017-12-17T11:02:48.829Z,15
2017-12-17T11:03:29.826Z,15
2017-12-17T11:04:10.195Z,10
2017-12-17T11:04:51.438Z,10
2017-12-17T11:05:38.261Z,10
2017-12-17T11:06:18.963Z,10
2017-12-17T11:07:00.108Z,10
2017-12-17T11:07:40.875Z,10
2017-12-17T11:08:22.270Z,10
2017-12-17T11:09:02.772Z,5
2017-12-17T11:09:43.230Z,5
2017-12-17T11:10:23.727Z,5
2017-12-17T11:11:10.849Z,5
2017-12-17T11:11:51.089Z,10
2017-12-17T11:12:31.606Z,5
2017-12-17T11:13:12.048Z,10
2017-12-17T11:13:53.961Z,10
2017-12-17T11:14:34.436Z,10
2017-12-17T11:15:15.858Z,10
2017-12-17T11:15:55.899Z,10
2017-12-17T11:16:38.250Z,15
2017-12-17T11:17:21.288Z,15
2017-12-17T11:18:01.685Z,15
2017-12-17T11:18:42.111Z,15
2017-12-17T11:19:23.210Z,15
2017-12-17T11:20:04.629Z,15
2017-12-17T11:20:45.614Z,15
2017-12-17T11:21:26.010Z,15
2017-12-17T11:22:07.998Z,15
2017-12-17T11:22:50.395Z,15
2017-12-17T11:23:31.314Z,15
2017-12-17T11:24:14.498Z,15
2017-12-17T11:24:56.089Z,15
2017-12-17T11:25:37.078Z,20
2017-12-17T11:26:17.599Z,20
2017-12-17T11:26:59.460Z,20
2017-12-17T11:27:40.724Z,20
2017-12-17T11:28:22.202Z,20
2017-12-17T11:29:02.714Z,20
2017-12-17T11:29:43.303Z,20
2017-12-17T11:30:27.790Z,20
2017-12-17T11:31:12.107Z,20
2017-12-17T11:31:52.992Z,20
2017-12-17T11:32:34.376Z,15
2017-12-17T11:33:17.911Z,15
2017-12-17T11:33:56.292Z,15
2017-12-17T11:34:37.940Z,15
2017-12-17T11:35:18.383Z,15
2017-12-17T11:35:59.001Z,15
2017-12-17T11:36:39.785Z,15
2017-12-17T11:41:07.074Z,25
2017-12-17T11:52:28.666Z,25
2017-12-17T11:56:07.547Z,25
2017-12-17T11:56:48.538Z,25
2017-12-17T11:57:29.158Z,20
2017-12-17T11:58:10.269Z,20
2017-12-17T11:58:51.195Z,20
2017-12-17T11:59:31.601Z,15
2017-12-17T12:00:11.957Z,15
2017-12-17T12:00:52.370Z,15
2017-12-17T12:01:32.773Z,15
2017-12-17T12:02:13.197Z,15
2017-12-17T12:02:53.696Z,10
2017-12-17T12:03:34.076Z,10
2017-12-17T12:04:14.476Z,10
2017-12-17T12:04:55.300Z,10
2017-12-17T12:05:35.859Z,15
2017-12-17T12:06:18.258Z,15
2017-12-17T12:06:57.989Z,15
2017-12-17T12:07:38.204Z,15
2017-12-17T12:08:19.017Z,15
2017-12-17T12:08:59.814Z,10
2017-12-17T12:09:41.184Z,10
2017-12-17T12:10:22.553Z,10
2017-12-17T12:11:03.372Z,10
2017-12-17T12:11:50.429Z,10
2017-12-17T12:12:29.706Z,10
2017-12-17T12:13:09.973Z,10
2017-12-17T12:13:50.436Z,10
2017-12-17T12:14:30.790Z,10
2017-12-17T12:15:11.945Z,10
2017-12-17T12:15:54.597Z,10
2017-12-17T12:16:34.807Z,10
2017-12-17T12:17:16.030Z,10
2017-12-17T12:17:56.092Z,10
2017-12-17T12:18:37.925Z,10
2017-12-17T12:19:20.592Z,15
2017-12-17T12:20:00.651Z,15
2017-12-17T12:20:41.596Z,15
2017-12-17T12:21:21.660Z,15
2017-12-17T12:22:03.671Z,15
2017-12-17T12:22:44.103Z,15
2017-12-17T12:23:24.468Z,15
2017-12-17T12:24:05.501Z,15
2017-12-17T12:24:46.304Z,20
2017-12-17T12:25:27.345Z,20
2017-12-17T12:26:07.769Z,20
2017-12-17T12:26:49.072Z,20
2017-12-17T12:27:29.533Z,15
2017-12-17T12:28:10.151Z,15
2017-12-17T12:28:50.553Z,15
2017-12-17T12:29:30.997Z,15
2017-12-17T12:30:16.507Z,20
2017-12-17T12:30:56.815Z,20
2017-12-17T12:31:37.254Z,20
2017-12-17T12:32:19.059Z,20
2017-12-17T12:33:00.678Z,20
2017-12-17T12:35:53.731Z,20
2017-12-17T12:39:31.161Z,20
2017-12-17T12:40:23.541Z,20
2017-12-17T12:48:20.128Z,30
2017-12-17T12:49:02.503Z,30
2017-12-17T12:49:43.476Z,30
2017-12-17T12:50:23.787Z,35
2017-12-17T12:51:04.182Z,30
2017-12-17T12:51:45.098Z,30
2017-12-17T12:52:25.599Z,30
2017-12-17T12:53:05.999Z,30
2017-12-17T12:53:46.402Z,30
2017-12-17T12:54:26.918Z,35
2017-12-17T12:55:07.330Z,30
2017-12-17T12:55:48.351Z,35
2017-12-17T12:56:29.768Z,25
2017-12-17T12:57:12.751Z,25
2017-12-17T12:57:53.208Z,25
2017-12-17T12:58:33.572Z,25
2017-12-17T12:59:20.516Z,25
2017-12-17T13:00:05.187Z,25
2017-12-17T13:00:46.421Z,20
2017-12-17T13:03:33.919Z,15
2017-12-17T13:04:15.231Z,15
2017-12-17T13:05:09.266Z,15
2017-12-17T13:07:49.602Z,15
2017-12-17T13:13:16.209Z,10
2017-12-17T13:28:32.568Z,5
2017-12-17T13:37:44.413Z,5
2017-12-17T13:39:20.283Z,5
2017-12-17T13:40:00.418Z,5
2017-12-17T13:40:41.100Z,5
2017-12-17T13:41:21.635Z,5
2017-12-17T13:42:01.879Z,5
2017-12-17T13:42:42.351Z,5
2017-12-17T13:43:23.559Z,10
2017-12-17T13:44:12.461Z,10
2017-12-17T13:44:52.350Z,10
2017-12-17T13:45:32.762Z,10
2017-12-17T13:46:13.810Z,10
2017-12-17T13:46:54.188Z,10
2017-12-17T13:47:34.939Z,10
2017-12-17T13:48:16.327Z,10
2017-12-17T13:48:56.726Z,10
2017-12-17T13:49:37.443Z,10
2017-12-17T13:50:18.039Z,10
2017-12-17T13:52:24.158Z,10
2017-12-17T13:53:07.793Z,10
2017-12-17T13:53:48.310Z,10
2017-12-17T13:54:28.720Z,10
2017-12-17T13:55:09.904Z,10
2017-12-17T13:55:49.648Z,10
2017-12-17T13:56:30.202Z,10
2017-12-17T13:57:11.401Z,10
2017-12-17T13:57:53.164Z,10
2017-12-17T13:58:34.188Z,5
2017-12-17T13:59:14.624Z,5
2017-12-17T13:59:55.203Z,5
2017-12-17T14:00:35.826Z,5
2017-12-17T14:01:15.944Z,5
2017-12-17T14:01:58.188Z,10
2017-12-17T14:02:38.690Z,10
2017-12-17T14:03:20.292Z,10
2017-12-17T14:04:04.993Z,10
2017-12-17T14:04:48.093Z,10
2017-12-17T14:05:28.782Z,15
2017-12-17T14:06:09.044Z,15
2017-12-17T14:06:50.206Z,15
2017-12-17T14:07:30.522Z,10
2017-12-17T14:08:11.059Z,10
2017-12-17T14:08:51.830Z,10
2017-12-17T14:09:33.632Z,10
2017-12-17T14:10:14.130Z,10
2017-12-17T14:10:54.553Z,10
2017-12-17T14:11:34.949Z,10
2017-12-17T14:12:15.409Z,10
2017-12-17T14:12:55.766Z,10
2017-12-17T14:13:36.179Z,10
2017-12-17T14:14:16.576Z,10
2017-12-17T14:14:57.093Z,10
2017-12-17T14:15:37.430Z,10
2017-12-17T14:16:17.851Z,10
2017-12-17T14:16:59.128Z,10
2017-12-17T14:17:39.298Z,5
2017-12-17T14:18:19.667Z,5
2017-12-17T14:19:00.086Z,5
2017-12-17T14:19:40.483Z,5
2017-12-17T14:20:24.382Z,5
2017-12-17T14:21:02.116Z,10
2017-12-17T14:21:45.673Z,10
2017-12-17T14:22:26.321Z,10
2017-12-17T14:23:06.751Z,10
2017-12-17T14:23:47.193Z,10
2017-12-17T14:24:28.493Z,10
2017-12-17T14:25:10.341Z,10
2017-12-17T14:25:50.692Z,10
2017-12-17T14:26:31.073Z,10
2017-12-17T14:27:11.469Z,10
2017-12-17T14:27:51.898Z,10
2017-12-17T14:28:32.372Z,10
2017-12-17T14:29:12.684Z,10
2017-12-17T14:29:53.110Z,5
2017-12-17T14:30:33.560Z,5
2017-12-17T14:31:13.977Z,5
2017-12-17T14:31:54.413Z,5
2017-12-17T14:32:34.830Z,5
2017-12-17T14:33:15.180Z,5
2017-12-17T14:33:55.575Z,5
2017-12-17T14:34:35.974Z,5
2017-12-17T14:35:16.421Z,5
2017-12-17T14:35:56.866Z,5
2017-12-17T14:36:37.228Z,5
2017-12-17T14:37:17.624Z,5
2017-12-17T14:37:58.082Z,5
2017-12-17T14:38:38.487Z,5
2017-12-17T14:39:18.853Z,5
2017-12-17T14:39:59.258Z,5
2017-12-17T14:40:39.670Z,5
2017-12-17T14:41:20.102Z,5
2017-12-17T14:42:00.529Z,0
2017-12-17T14:42:40.924Z,0
2017-12-17T14:43:21.326Z,0
2017-12-17T14:44:01.707Z,0
2017-12-17T14:44:42.089Z,0
2017-12-17T14:45:22.534Z,0
2017-12-17T14:46:02.859Z,0
2017-12-17T14:46:43.270Z,0
2017-12-17T14:47:23.735Z,0
2017-12-17T14:48:04.188Z,0
2017-12-17T14:48:44.527Z,0
2017-12-17T14:49:24.880Z,0
2017-12-17T14:50:07.306Z,0
2017-12-17T14:50:47.913Z,0
2017-12-17T14:51:28.377Z,0
2017-12-17T14:52:08.778Z,0
2017-12-17T14:52:49.223Z,0
2017-12-17T14:53:29.620Z,0
2017-12-17T14:54:10.011Z,0
2017-12-17T14:54:50.364Z,0
2017-12-17T14:55:30.754Z,0
2017-12-17T14:56:11.163Z,0
2017-12-17T14:56:51.540Z,0
2017-12-17T14:57:32.023Z,0
2017-12-17T14:58:12.321Z,0
2017-12-17T14:58:52.719Z,0
2017-12-17T15:03:13.080Z,0
2017-12-17T15:03:54.125Z,0
2017-12-17T15:04:34.481Z,0
2017-12-17T15:05:14.851Z,0
2017-12-17T15:05:55.266Z,0
2017-12-17T15:06:35.644Z,0
2017-12-17T15:07:19.046Z,0
2017-12-17T15:07:59.408Z,0
2017-12-17T15:08:39.851Z,0
2017-12-17T15:09:20.248Z,0
2017-12-17T15:10:00.608Z,0
2017-12-17T15:10:41.014Z,0
2017-12-17T15:11:21.360Z,0
2017-12-17T15:12:01.787Z,0
2017-12-17T15:12:42.476Z,0
2017-12-17T15:13:22.885Z,0
2017-12-17T15:14:03.266Z,0
2017-12-17T15:14:43.658Z,0
2017-12-17T15:15:24.150Z,0
2017-12-17T15:16:04.516Z,0
2017-12-17T15:16:44.893Z,0
2017-12-17T15:19:03.067Z,0
2017-12-17T15:19:52.618Z,0
2017-12-17T15:20:42.881Z,0
2017-12-17T15:21:21.919Z,0
2017-12-17T15:22:02.417Z,0
2017-12-17T15:22:42.734Z,0
2017-12-17T15:23:23.161Z,0
2017-12-17T15:24:03.514Z,0
2017-12-17T15:24:43.920Z,0
2017-12-17T15:25:24.302Z,0
2017-12-17T15:26:04.666Z,0
2017-12-17T15:26:45.115Z,0
2017-12-17T15:27:25.454Z,0
2017-12-17T15:28:05.880Z,0
2017-12-17T15:28:46.254Z,0
2017-12-17T15:29:26.689Z,0
2017-12-17T15:30:07.106Z,0
2017-12-17T15:30:47.480Z,0
2017-12-17T15:31:27.856Z,0
2017-12-17T15:32:08.247Z,0
2017-12-17T15:32:48.636Z,0
2017-12-17T15:33:29.087Z,0
2017-12-17T15:34:09.424Z,0
2017-12-17T15:34:49.793Z,0
2017-12-17T15:35:30.241Z,0
2017-12-17T15:36:10.606Z,0
2017-12-17T15:36:51.016Z,0
2017-12-17T15:37:31.413Z,0
2017-12-17T15:38:11.764Z,0
2017-12-17T15:38:52.209Z,0
2017-12-17T15:39:32.528Z,0
2017-12-17T15:40:12.898Z,0
2017-12-17T15:40:53.319Z,0
2017-12-17T15:41:33.677Z,0
2017-12-17T15:42:14.129Z,0
2017-12-17T15:42:54.602Z,0
2017-12-17T15:43:35.257Z,0
2017-12-17T15:44:16.616Z,0
2017-12-17T15:45:02.345Z,0
2017-12-17T15:45:43.458Z,0
2017-12-17T15:46:24.052Z,0
2017-12-17T15:47:04.399Z,0
2017-12-17T15:47:45.635Z,0
2017-12-17T15:48:26.175Z,0
2017-12-17T15:49:06.311Z,0
2017-12-17T15:49:46.696Z,0
2017-12-17T15:50:27.104Z,0
2017-12-17T15:51:07.489Z,0
2017-12-17T15:51:47.891Z,0
2017-12-17T15:52:28.284Z,0
2017-12-17T15:53:09.108Z,0
2017-12-17T15:53:49.499Z,0
2017-12-17T15:54:29.860Z,0
2017-12-17T15:55:10.318Z,0
2017-12-17T15:55:51.586Z,0
2017-12-17T15:56:32.025Z,0
2017-12-17T15:57:12.420Z,0
2017-12-17T15:57:53.168Z,0
2017-12-17T15:58:33.228Z,0
2017-12-17T15:59:13.695Z,0
2017-12-17T15:59:54.084Z,0
2017-12-17T16:00:34.533Z,0
2017-12-17T16:01:14.901Z,0
2017-12-17T16:01:55.320Z,0
2017-12-17T16:02:35.733Z,0
2017-12-17T16:03:18.359Z,0
2017-12-17T16:03:57.299Z,0
2017-12-17T16:46:32.471Z,0
2017-12-17T16:52:42.654Z,0
2017-12-17T16:55:00.848Z,0
2017-12-17T16:55:41.422Z,0
2017-12-17T16:56:21.780Z,0
2017-12-17T16:57:02.175Z,0
2017-12-17T16:57:42.602Z,0
2017-12-17T16:58:25.568Z,0
2017-12-17T16:59:05.823Z,0
2017-12-17T16:59:46.232Z,0
2017-12-17T17:00:26.654Z,0
2017-12-17T17:01:07.047Z,0
2017-12-17T17:01:47.485Z,0
2017-12-17T17:02:27.892Z,0
2017-12-17T17:03:08.334Z,0
2017-12-17T17:03:48.686Z,0
2017-12-17T17:04:29.118Z,0
2017-12-17T17:05:09.982Z,0
2017-12-17T17:05:49.882Z,0
2017-12-17T17:06:30.355Z,0
2017-12-17T17:07:10.798Z,0
2017-12-17T17:07:51.593Z,0
2017-12-17T17:08:31.903Z,0
2017-12-17T17:10:59.733Z,0
2017-12-17T17:11:40.142Z,0
2017-12-17T17:12:20.495Z,0
2017-12-17T17:13:00.917Z,0
2017-12-17T17:13:41.489Z,0
2017-12-17T17:14:21.741Z,0
2017-12-17T17:15:02.147Z,0
2017-12-17T17:15:42.536Z,0
2017-12-17T17:16:22.964Z,0
2017-12-17T17:17:03.365Z,0
2017-12-17T17:17:43.857Z,0
2017-12-17T17:18:24.640Z,0
2017-12-17T17:19:04.910Z,0
2017-12-17T17:19:45.314Z,0
2017-12-17T17:20:25.763Z,0
2017-12-17T17:21:06.455Z,0
2017-12-17T17:21:46.872Z,0
2017-12-17T17:22:27.307Z,0
2017-12-17T17:23:07.932Z,0
2017-12-17T17:23:50.406Z,0
2017-12-17T17:24:30.704Z,0
2017-12-17T17:25:12.467Z,0
2017-12-17T17:25:52.789Z,0
2017-12-17T17:26:33.619Z,0
2017-12-17T17:27:13.980Z,0
2017-12-17T17:27:54.406Z,0
2017-12-17T17:28:34.988Z,0
2017-12-17T17:29:15.316Z,0
2017-12-17T17:29:55.668Z,0
2017-12-17T17:30:36.057Z,0
2017-12-17T17:31:16.481Z,0
2017-12-17T17:31:57.316Z,0
2017-12-17T17:32:37.675Z,0
2017-12-17T17:33:19.009Z,0
2017-12-17T17:34:00.467Z,0
2017-12-17T17:34:40.475Z,0
2017-12-17T17:35:21.243Z,0
2017-12-17T17:36:01.731Z,0
2017-12-17T17:36:42.600Z,0
2017-12-17T17:37:23.570Z,0
2017-12-17T17:38:03.086Z,0
2017-12-17T17:38:44.416Z,0
2017-12-17T17:39:24.197Z,0
2017-12-17T17:40:04.598Z,0
2017-12-17T17:40:45.967Z,0
2017-12-17T17:41:25.923Z,0